Time;durP1;ratioP1;P1;durP2;ratioP2;P2;SDS_P1;SDS_P2;PMS_P1;PMS_P2;Temp;Humidity;BMP_temperature;BMP_pressure;BME280_temperature;BME280_humidity;BME280_pressure;Samples;Min_cycle;Max_cycle;Signal;HPM_P1;HPM_P2
2023/03/03 00:01:31;;;;;;;39.70;26.30;;;;;;;4.52;64.17;96306.22;5032948;28;20550;-69
2023/03/03 00:03:56;;;;;;;40.60;25.93;;;;;;;4.31;64.27;96300.56;5033113;28;20505;-71
2023/03/03 00:06:23;;;;;;;41.30;27.17;;;;;;;4.42;64.29;96301.22;5032758;28;20927;-70
2023/03/03 00:08:49;;;;;;;52.17;27.53;;;;;;;4.56;64.35;96294.84;5032982;28;20189;-71
2023/03/03 00:11:15;;;;;;;42.07;26.50;;;;;;;4.53;64.06;96300.09;5032980;28;20402;-71
2023/03/03 00:13:49;;;;;;;42.23;26.67;;;;;;;4.54;64.38;96299.25;5032887;28;20187;-70
2023/03/03 00:16:23;;;;;;;44.00;26.17;;;;;;;4.53;64.34;96300.97;5032793;28;20229;-71
2023/03/03 00:18:50;;;;;;;45.83;29.00;;;;;;;4.48;63.81;96304.56;5032869;28;20443;-71
2023/03/03 00:21:21;;;;;;;42.63;27.83;;;;;;;4.60;63.68;96301.69;5032995;28;20468;-69
2023/03/03 00:23:47;;;;;;;44.17;25.40;;;;;;;4.71;63.75;96294.50;5031067;28;20437;-71
2023/03/03 00:26:15;;;;;;;41.40;25.63;;;;;;;4.64;63.64;96293.78;5030560;28;20785;-70
2023/03/03 00:28:46;;;;;;;43.80;24.83;;;;;;;4.54;63.94;96287.09;5013044;28;20186;-69
2023/03/03 00:31:17;;;;;;;46.77;28.40;;;;;;;4.56;63.45;96294.84;5031500;28;20895;-70
2023/03/03 00:33:49;;;;;;;42.67;26.20;;;;;;;4.55;63.48;96294.00;5032830;28;20418;-71
2023/03/03 00:36:15;;;;;;;44.63;26.73;;;;;;;4.56;64.20;96289.63;5031443;28;20430;-70
2023/03/03 00:38:41;;;;;;;37.93;26.23;;;;;;;4.57;64.00;96301.75;5031346;28;20466;-69
2023/03/03 00:41:22;;;;;;;42.30;27.47;;;;;;;4.56;63.45;96305.22;5032377;28;20676;-70
2023/03/03 00:43:49;;;;;;;40.20;26.50;;;;;;;4.53;64.16;96305.31;5032833;28;20405;-70
2023/03/03 00:46:22;;;;;;;49.00;27.20;;;;;;;4.54;64.30;96307.03;5032605;28;20432;-70
2023/03/03 00:48:49;;;;;;;46.00;27.70;;;;;;;4.50;64.07;96302.78;5032776;28;20417;-73
2023/03/03 00:51:29;;;;;;;42.33;26.43;;;;;;;4.54;63.90;96307.03;5032461;28;20973;-71
2023/03/03 00:53:56;;;;;;;40.10;25.60;;;;;;;4.43;64.59;96304.66;5032763;28;20740;-70
2023/03/03 00:56:22;;;;;;;37.00;25.80;;;;;;;4.59;64.21;96305.19;5032063;28;20428;-71
2023/03/03 00:58:47;;;;;;;38.93;25.00;;;;;;;4.69;63.33;96305.84;5032769;28;20414;-70
2023/03/03 01:01:14;;;;;;;44.93;26.97;;;;;;;4.67;63.30;96303.25;5032464;28;20253;-70
2023/03/03 01:03:40;;;;;;;43.33;27.63;;;;;;;4.69;63.83;96309.28;5031818;28;20175;-70
2023/03/03 01:06:06;;;;;;;52.30;26.30;;;;;;;4.67;63.73;96311.06;5028971;28;20529;-70
2023/03/03 01:08:32;;;;;;;46.83;27.60;;;;;;;4.76;63.69;96303.06;5029400;28;20172;-70
2023/03/03 01:11:02;;;;;;;44.20;26.50;;;;;;;4.68;63.25;96294.59;5029478;28;20394;-71
2023/03/03 01:13:31;;;;;;;42.70;27.07;;;;;;;4.65;64.05;96299.84;5029635;28;20438;-70
2023/03/03 01:15:58;;;;;;;41.53;26.43;;;;;;;4.65;63.57;96299.84;5029172;28;20911;-71
2023/03/03 01:18:23;;;;;;;45.33;25.43;;;;;;;4.58;64.03;96303.47;5029375;28;20468;-70
2023/03/03 01:20:49;;;;;;;46.77;26.70;;;;;;;4.65;64.38;96295.50;5029357;28;20482;-71
2023/03/03 01:23:14;;;;;;;49.03;27.20;;;;;;;4.62;63.88;96297.31;5028205;28;20207;-71
2023/03/03 01:25:40;;;;;;;50.70;29.63;;;;;;;4.52;64.56;96296.66;5028186;28;20187;-72
2023/03/03 01:28:05;;;;;;;42.97;27.40;;;;;;;4.61;64.26;96296.47;5028584;28;20180;-71
2023/03/03 01:30:31;;;;;;;47.90;28.50;;;;;;;4.53;64.36;96292.31;5028885;28;20179;-71
2023/03/03 01:32:57;;;;;;;46.43;28.30;;;;;;;4.52;64.36;96298.41;5030387;28;20253;-71
2023/03/03 01:35:23;;;;;;;45.27;25.70;;;;;;;4.52;64.62;96298.41;5030346;28;20254;-70
2023/03/03 01:37:48;;;;;;;41.30;26.40;;;;;;;4.53;64.30;96306.16;5030197;28;20522;-72
2023/03/03 01:40:19;;;;;;;44.50;27.70;;;;;;;4.60;64.42;96299.94;5029904;28;20255;-71
2023/03/03 01:42:44;;;;;;;44.20;27.20;;;;;;;4.48;64.39;96297.59;5029546;28;20223;-70
2023/03/03 01:45:21;;;;;;;42.10;27.77;;;;;;;4.56;64.25;96298.31;5028742;28;20438;-70
2023/03/03 01:48:15;;;;;;;38.63;26.63;;;;;;;4.59;64.34;96300.84;5028435;28;20541;-70
2023/03/03 01:50:53;;;;;;;42.10;25.57;;;;;;;4.62;64.05;96292.97;5023341;28;20422;-70
2023/03/03 01:53:24;;;;;;;41.47;26.23;;;;;;;4.54;64.66;96292.28;5028412;28;20547;-72
2023/03/03 01:55:52;;;;;;;43.67;26.73;;;;;;;4.55;64.66;96294.00;5028422;28;20411;-71
2023/03/03 01:58:29;;;;;;;45.27;25.60;;;;;;;4.63;64.56;96286.00;5028349;28;20435;-70
2023/03/03 02:00:59;;;;;;;45.37;26.70;;;;;;;4.63;64.30;96280.81;5028306;28;21007;-70
2023/03/03 02:03:25;;;;;;;46.07;24.63;;;;;;;4.64;64.41;96278.19;5028270;28;20932;-70
2023/03/03 02:05:56;;;;;;;42.07;27.93;;;;;;;4.61;64.60;96282.63;5027872;28;20418;-72
2023/03/03 02:08:27;;;;;;;48.73;29.03;;;;;;;4.59;64.31;96285.25;5029195;28;21052;-70
2023/03/03 02:10:54;;;;;;;42.13;28.93;;;;;;;4.63;64.66;96286.91;5028646;28;20406;-72
2023/03/03 02:13:20;;;;;;;44.50;26.63;;;;;;;4.61;63.86;96278.28;5028024;28;20449;-71
2023/03/03 02:15:45;;;;;;;44.43;27.70;;;;;;;4.71;64.13;96284.13;5027331;28;20414;-71
2023/03/03 02:18:17;;;;;;;47.50;25.60;;;;;;;4.69;64.32;96275.50;5027714;28;20180;-70
2023/03/03 02:21:02;;;;;;;44.80;27.13;;;;;;;4.60;64.90;96278.28;5027995;28;20203;-70
2023/03/03 02:23:53;;;;;;;47.50;25.37;;;;;;;4.60;64.25;96273.94;5027913;28;20422;-71
2023/03/03 02:26:24;;;;;;;49.17;28.37;;;;;;;4.66;63.99;96263.44;5011236;28;20426;-70
2023/03/03 02:28:51;;;;;;;46.33;29.20;;;;;;;4.65;64.38;96261.72;5027886;28;20413;-71
2023/03/03 02:31:20;;;;;;;45.50;27.50;;;;;;;4.63;64.52;96266.09;5027807;28;20490;-71
2023/03/03 02:33:48;;;;;;;49.70;28.60;;;;;;;4.69;64.57;96264.25;5027783;28;20462;-72
2023/03/03 02:36:17;;;;;;;46.33;26.80;;;;;;;4.76;63.76;96263.22;5026905;28;20476;-72
2023/03/03 02:39:03;;;;;;;51.13;26.17;;;;;;;4.61;64.31;96260.06;5027788;28;20418;-71
2023/03/03 02:41:50;;;;;;;44.63;26.97;;;;;;;4.66;64.20;96263.44;5027476;28;20490;-70
2023/03/03 02:44:18;;;;;;;46.33;28.40;;;;;;;4.61;64.37;96260.06;5027416;28;20410;-70
2023/03/03 02:46:47;;;;;;;43.33;26.90;;;;;;;4.54;64.52;96262.84;5027166;28;20488;-71
2023/03/03 02:49:15;;;;;;;49.37;27.50;;;;;;;4.61;64.42;96264.44;5027274;28;20848;-70
2023/03/03 02:51:41;;;;;;;44.50;27.70;;;;;;;4.58;64.42;96260.16;5025833;28;20456;-69
2023/03/03 02:54:08;;;;;;;46.33;29.37;;;;;;;4.62;64.58;96268.72;5027328;28;20414;-69
2023/03/03 02:56:34;;;;;;;48.50;30.03;;;;;;;4.67;64.39;96257.31;5026999;28;20452;-71
2023/03/03 02:59:00;;;;;;;48.43;27.10;;;;;;;4.58;64.30;96256.69;5027375;28;21136;-70
2023/03/03 03:01:25;;;;;;;38.83;26.50;;;;;;;4.61;64.72;96259.22;5027411;28;20199;-71
2023/03/03 03:03:51;;;;;;;57.60;30.13;;;;;;;4.67;64.22;96252.13;5027242;28;20175;-70
2023/03/03 03:06:16;;;;;;;47.60;29.40;;;;;;;4.61;64.57;96251.44;5026926;28;20241;-68
2023/03/03 03:08:42;;;;;;;50.27;28.80;;;;;;;4.61;64.52;96252.28;5027236;28;20182;-72
2023/03/03 03:11:07;;;;;;;45.53;28.50;;;;;;;4.56;64.75;96251.53;5027045;28;20167;-71
2023/03/03 03:13:33;;;;;;;46.00;27.73;;;;;;;4.57;64.41;96244.59;5026889;28;20179;-71
2023/03/03 03:15:59;;;;;;;43.03;27.27;;;;;;;4.58;64.16;96248.88;5026558;28;20182;-70
2023/03/03 03:18:25;;;;;;;48.53;28.50;;;;;;;4.58;64.46;96246.28;5026781;28;20172;-71
2023/03/03 03:20:51;;;;;;;46.23;29.53;;;;;;;4.62;64.72;96251.38;5026875;28;20546;-70
2023/03/03 03:23:16;;;;;;;44.00;27.87;;;;;;;4.53;64.56;96253.34;5026845;28;20526;-71
2023/03/03 03:25:45;;;;;;;46.07;29.20;;;;;;;4.49;64.85;96262.06;5026615;28;20222;-71
2023/03/03 03:28:12;;;;;;;49.47;29.47;;;;;;;4.59;64.41;96263.59;5026175;28;20206;-70
2023/03/03 03:30:38;;;;;;;53.57;28.90;;;;;;;4.57;65.05;96263.63;5026763;28;20442;-71
2023/03/03 03:33:03;;;;;;;47.90;27.37;;;;;;;4.50;64.75;96263.81;5026465;28;20472;-70
2023/03/03 03:35:29;;;;;;;45.90;27.80;;;;;;;4.51;64.79;96265.50;5025999;28;20207;-70
2023/03/03 03:37:54;;;;;;;44.53;28.53;;;;;;;4.52;65.19;96270.69;5026475;28;20261;-70
2023/03/03 03:40:20;;;;;;;46.13;28.10;;;;;;;4.54;65.10;96270.66;5026301;28;20625;-69
2023/03/03 03:42:45;;;;;;;47.43;29.40;;;;;;;4.48;65.02;96268.19;5025268;28;20219;-71
2023/03/03 03:45:14;;;;;;;54.33;28.83;;;;;;;4.39;65.15;96275.31;5026585;28;20695;-71
2023/03/03 03:47:41;;;;;;;54.50;28.73;;;;;;;4.49;65.16;96273.34;5026094;28;20183;-70
2023/03/03 03:50:08;;;;;;;45.97;27.23;;;;;;;4.50;65.03;96277.66;5026293;28;20493;-70
2023/03/03 03:52:33;;;;;;;49.93;29.20;;;;;;;4.48;64.30;96273.38;5026355;28;20430;-70
2023/03/03 03:54:59;;;;;;;46.97;27.20;;;;;;;4.44;65.13;96276.06;5026374;28;20418;-70
2023/03/03 03:57:24;;;;;;;42.57;26.33;;;;;;;4.46;64.94;96270.78;5026160;28;20175;-70
2023/03/03 03:59:50;;;;;;;43.20;28.20;;;;;;;4.45;64.76;96266.50;5026489;28;20184;-71
2023/03/03 04:02:15;;;;;;;46.50;28.17;;;;;;;4.47;64.78;96271.69;5026405;28;20207;-70
2023/03/03 04:04:41;;;;;;;49.40;28.40;;;;;;;4.49;65.13;96265.56;5026461;28;20214;-71
2023/03/03 04:07:06;;;;;;;37.30;25.63;;;;;;;4.51;64.43;96268.09;5026070;28;20175;-70
2023/03/03 04:09:32;;;;;;;49.60;29.07;;;;;;;4.47;64.89;96262.13;5026225;28;20175;-70
2023/03/03 04:11:57;;;;;;;49.07;29.10;;;;;;;4.58;65.10;96270.56;5026367;28;20262;-69
2023/03/03 04:14:23;;;;;;;47.10;28.00;;;;;;;4.57;64.73;96270.56;5026169;28;20226;-69
2023/03/03 04:16:48;;;;;;;48.10;27.93;;;;;;;4.58;64.28;96267.06;5026058;28;20171;-69
2023/03/03 04:19:14;;;;;;;44.10;28.70;;;;;;;4.59;64.70;96268.81;5026656;28;20184;-71
2023/03/03 04:21:39;;;;;;;45.43;28.07;;;;;;;4.59;64.27;96272.25;5026666;28;20222;-70
2023/03/03 04:24:05;;;;;;;48.93;28.50;;;;;;;4.70;63.93;96276.34;5026612;28;20210;-70
2023/03/03 04:26:31;;;;;;;43.97;28.10;;;;;;;4.54;64.87;96270.66;5026335;28;20176;-69
2023/03/03 04:28:57;;;;;;;46.83;28.07;;;;;;;4.55;64.65;96274.94;5026691;28;20206;-73
2023/03/03 04:31:24;;;;;;;48.17;28.40;;;;;;;4.66;64.40;96279.03;5026164;28;20167;-71
2023/03/03 04:33:50;;;;;;;53.87;29.80;;;;;;;4.51;64.53;96266.34;5026336;28;20416;-70
2023/03/03 04:36:16;;;;;;;43.57;29.47;;;;;;;4.43;64.59;96270.88;5025600;28;20568;-71
2023/03/03 04:38:41;;;;;;;47.50;29.67;;;;;;;4.50;64.75;96276.81;5025953;28;20501;-70
2023/03/03 04:41:07;;;;;;;52.83;30.00;;;;;;;4.60;64.46;96270.50;5029065;28;20716;-70
2023/03/03 04:43:32;;;;;;;51.70;30.83;;;;;;;4.53;65.20;96274.97;5029716;28;20700;-70
2023/03/03 04:45:58;;;;;;;50.43;26.97;;;;;;;4.55;64.78;96277.53;5029480;28;20274;-70
2023/03/03 04:48:23;;;;;;;61.40;31.00;;;;;;;4.54;65.06;96273.25;5029670;28;20857;-71
2023/03/03 04:50:48;;;;;;;45.60;28.87;;;;;;;4.45;64.74;96277.75;5029874;28;20470;-70
2023/03/03 04:53:14;;;;;;;50.90;29.73;;;;;;;4.48;65.42;96274.22;5028199;28;20811;-70
2023/03/03 04:55:40;;;;;;;43.40;28.23;;;;;;;4.53;64.87;96274.97;5029430;28;20163;-70
2023/03/03 04:58:05;;;;;;;49.93;30.47;;;;;;;4.51;65.09;96281.09;5029367;28;20167;-72
2023/03/03 05:00:31;;;;;;;56.33;29.83;;;;;;;4.69;64.79;96278.09;5029312;28;20195;-70
2023/03/03 05:02:56;;;;;;;55.73;32.80;;;;;;;4.69;64.27;96282.44;5029332;28;20206;-71
2023/03/03 05:05:22;;;;;;;52.10;29.80;;;;;;;4.65;64.37;96289.44;5029177;28;20487;-70
2023/03/03 05:07:47;;;;;;;46.47;29.20;;;;;;;4.66;64.37;96291.16;5028852;28;20170;-71
2023/03/03 05:10:12;;;;;;;48.17;31.10;;;;;;;4.57;64.80;96291.38;5028960;28;20714;-70
2023/03/03 05:12:38;;;;;;;77.90;31.53;;;;;;;4.65;64.62;96292.91;5028956;28;20192;-70
2023/03/03 05:15:04;;;;;;;48.67;29.87;;;;;;;4.73;64.59;96292.75;5029206;28;20175;-70
2023/03/03 05:17:29;;;;;;;50.83;28.47;;;;;;;4.68;64.65;96292.00;5028554;28;20237;-71
2023/03/03 05:19:56;;;;;;;61.63;30.03;;;;;;;4.57;64.41;96287.03;5028957;28;20199;-70
2023/03/03 05:22:22;;;;;;;50.40;30.03;;;;;;;4.70;64.31;96292.81;5028689;28;20212;-70
2023/03/03 05:24:48;;;;;;;46.93;29.80;;;;;;;4.71;64.19;96291.91;5028791;28;20414;-70
2023/03/03 05:27:14;;;;;;;47.67;27.40;;;;;;;4.58;64.53;96291.34;5028411;28;20426;-69
2023/03/03 05:29:40;;;;;;;45.90;30.50;;;;;;;4.56;64.67;96289.63;5028698;28;20418;-71
2023/03/03 05:32:05;;;;;;;50.70;30.10;;;;;;;4.59;64.57;96298.25;5028597;28;20438;-70
2023/03/03 05:34:30;;;;;;;47.37;28.10;;;;;;;4.51;65.05;96302.72;5028590;28;20274;-71
2023/03/03 05:36:56;;;;;;;42.73;27.63;;;;;;;4.58;65.09;96298.25;5028346;28;20538;-69
2023/03/03 05:39:22;;;;;;;52.00;30.17;;;;;;;4.59;64.92;96306.03;5028355;28;20470;-69
2023/03/03 05:41:48;;;;;;;60.23;32.70;;;;;;;4.69;64.41;96296.28;5028311;28;20203;-68
2023/03/03 05:44:13;;;;;;;50.77;30.30;;;;;;;4.68;64.02;96312.78;5020966;28;20219;-70
2023/03/03 05:46:39;;;;;;;73.27;31.77;;;;;;;4.74;64.34;96307.44;5027138;28;20198;-70
2023/03/03 05:49:04;;;;;;;49.17;30.07;;;;;;;4.76;64.16;96305.66;5027207;28;20551;-70
2023/03/03 05:51:29;;;;;;;47.43;27.67;;;;;;;4.80;64.05;96309.91;5027774;28;20331;-70
2023/03/03 05:53:55;;;;;;;53.03;29.00;;;;;;;4.77;64.06;96307.38;5027087;28;20172;-70
2023/03/03 05:56:20;;;;;;;45.03;27.27;;;;;;;4.69;64.69;96308.44;5027829;28;20203;-70
2023/03/03 05:58:46;;;;;;;45.00;29.40;;;;;;;4.57;64.79;96310.41;5028209;28;20172;-70
2023/03/03 06:01:11;;;;;;;52.63;31.30;;;;;;;4.56;64.68;96313.03;5027966;28;20683;-69
2023/03/03 06:03:37;;;;;;;50.33;30.33;;;;;;;4.55;65.31;96317.38;5028102;28;20916;-69
2023/03/03 06:06:03;;;;;;;64.13;32.07;;;;;;;4.56;65.35;96318.22;5027790;28;20182;-69
2023/03/03 06:08:31;;;;;;;59.93;30.73;;;;;;;4.69;64.49;96319.69;5027768;28;20763;-69
2023/03/03 06:10:56;;;;;;;49.53;30.13;;;;;;;4.63;64.73;96325.88;5027979;28;20174;-70
2023/03/03 06:13:22;;;;;;;51.67;27.97;;;;;;;4.64;64.92;96329.31;5027676;28;20419;-69
2023/03/03 06:15:47;;;;;;;52.30;30.70;;;;;;;4.43;65.45;96333.22;5027913;28;20190;-70
2023/03/03 06:18:12;;;;;;;53.83;29.40;;;;;;;4.45;64.92;96334.91;5025204;28;20536;-70
2023/03/03 06:20:38;;;;;;;51.90;31.33;;;;;;;4.56;64.84;96332.09;5023550;28;20245;-68
2023/03/03 06:23:04;;;;;;;49.53;30.30;;;;;;;4.65;64.38;96333.63;5026364;28;20646;-70
2023/03/03 06:25:30;;;;;;;45.70;29.43;;;;;;;4.54;64.81;96333.03;5027360;28;20180;-69
2023/03/03 06:27:56;;;;;;;58.17;31.80;;;;;;;4.58;65.05;96332.94;5024935;28;20421;-69
2023/03/03 06:30:21;;;;;;;59.60;29.67;;;;;;;4.56;65.15;96332.09;5019625;28;20738;-70
2023/03/03 06:32:47;;;;;;;45.53;28.00;;;;;;;4.62;64.69;96342.34;5023602;28;20257;-69
2023/03/03 06:35:12;;;;;;;50.70;27.83;;;;;;;4.64;64.67;96344.91;5023741;28;20172;-71
2023/03/03 06:37:38;;;;;;;47.20;28.07;;;;;;;4.80;64.74;96345.44;5028914;28;20202;-70
2023/03/03 06:40:04;;;;;;;54.90;29.83;;;;;;;4.67;64.83;96345.69;5023069;28;20263;-70
2023/03/03 06:42:30;;;;;;;46.10;27.57;;;;;;;4.69;65.36;96355.22;5021118;28;20261;-70
2023/03/03 06:44:55;;;;;;;54.37;30.10;;;;;;;4.78;64.98;96358.47;5024964;28;20442;-71
2023/03/03 06:47:21;;;;;;;48.57;30.60;;;;;;;4.99;64.45;96356.28;5021818;28;20908;-68
2023/03/03 06:49:46;;;;;;;56.73;31.30;;;;;;;4.90;64.36;96361.69;5029289;28;20182;-70
2023/03/03 06:52:17;;;;;;;59.57;29.87;;;;;;;4.78;64.72;96362.81;5022158;28;20195;-69
2023/03/03 06:54:42;;;;;;;59.50;30.97;;;;;;;4.78;64.72;96368.03;5025046;28;20229;-69
2023/03/03 06:57:43;;;;;;;55.03;29.60;;;;;;;4.72;64.77;96370.75;5024843;28;20426;-69
2023/03/03 07:00:23;;;;;;;47.97;29.43;;;;;;;4.70;64.90;96368.19;5015637;28;20223;-74
2023/03/03 07:03:20;;;;;;;52.80;30.27;;;;;;;4.60;65.48;96374.47;5021037;28;21357;-71
2023/03/03 07:05:46;;;;;;;65.07;30.53;;;;;;;4.74;64.85;96377.63;4996052;28;20464;-70
2023/03/03 07:08:16;;;;;;;49.47;28.83;;;;;;;4.39;66.27;96380.94;5015737;28;20446;-70
2023/03/03 07:10:42;;;;;;;47.63;31.80;;;;;;;4.60;65.82;96380.50;5014273;28;20195;-69
2023/03/03 07:13:25;;;;;;;53.27;30.57;;;;;;;4.76;64.75;96381.03;5015953;28;21351;-71
2023/03/03 07:15:57;;;;;;;49.60;30.63;;;;;;;4.67;65.45;96387.28;5014299;28;20422;-69
2023/03/03 07:18:25;;;;;;;46.70;30.53;;;;;;;4.76;64.82;96390.59;5018368;28;20460;-70
2023/03/03 07:20:51;;;;;;;42.63;28.27;;;;;;;4.71;64.88;96382.03;5023180;28;20450;-71
2023/03/03 07:23:31;;;;;;;48.03;29.90;;;;;;;4.83;65.00;96387.81;5014843;28;20452;-70
2023/03/03 07:25:57;;;;;;;50.13;28.57;;;;;;;4.77;64.25;96381.91;5004236;28;20259;-70
2023/03/03 07:28:24;;;;;;;42.20;27.77;;;;;;;4.83;64.85;96386.97;5005882;28;20951;-70
2023/03/03 07:30:50;;;;;;;50.17;29.43;;;;;;;4.78;64.81;96394.03;5012797;28;20250;-70
2023/03/03 07:33:39;;;;;;;51.77;31.10;;;;;;;5.69;77.38;96392.78;5022626;28;21454;-70
2023/03/03 07:36:21;;;;;;;143.10;38.93;;;;;;;5.00;64.40;96395.25;5007599;28;20580;-70
2023/03/03 07:38:56;;;;;;;51.03;31.37;;;;;;;4.73;64.70;96394.13;5005040;28;20419;-71
2023/03/03 07:41:24;;;;;;;39.23;19.87;;;;;;;5.85;72.74;96381.09;5003778;28;21333;-72
2023/03/03 07:43:54;;;;;;;62.23;33.60;;;;;;;6.35;62.34;96396.31;5006299;28;20501;-71
2023/03/03 07:46:37;;;;;;;61.03;31.03;;;;;;;5.61;62.44;96399.94;5006863;28;20427;-71
2023/03/03 07:49:19;;;;;;;50.73;30.80;;;;;;;5.25;63.30;96400.78;5006582;28;20503;-69
2023/03/03 07:51:44;;;;;;;55.93;31.07;;;;;;;5.16;63.72;96395.78;5007280;28;20427;-72
2023/03/03 07:54:39;;;;;;;55.27;32.40;;;;;;;5.12;63.82;96398.47;5028536;28;20441;-71
2023/03/03 07:57:19;;;;;;;65.23;32.90;;;;;;;5.11;64.07;96391.56;5027666;28;20502;-71
2023/03/03 08:00:15;;;;;;;55.57;29.73;;;;;;;5.05;63.51;96387.34;5027532;28;20527;-69
2023/03/03 08:02:46;;;;;;;51.40;29.97;;;;;;;5.03;63.46;96397.81;5003979;28;20479;-72
2023/03/03 08:05:35;;;;;;;49.70;28.73;;;;;;;4.97;63.87;96399.69;5024803;28;20472;-71
2023/03/03 08:08:28;;;;;;;53.30;30.00;;;;;;;5.01;63.92;96406.53;5031881;28;20454;-71
2023/03/03 08:10:55;;;;;;;64.57;31.93;;;;;;;5.09;63.94;96408.06;5032958;28;20842;-70
2023/03/03 08:13:23;;;;;;;44.87;30.90;;;;;;;5.08;63.91;96411.56;5027842;28;20901;-70
2023/03/03 08:15:52;;;;;;;52.03;31.60;;;;;;;5.22;63.65;96405.16;5043616;28;20565;-72
2023/03/03 08:18:29;;;;;;;51.70;30.40;;;;;;;5.11;63.51;96407.19;5032231;28;20410;-70
2023/03/03 08:21:00;;;;;;;51.63;31.23;;;;;;;5.11;64.06;96404.59;5032105;28;20453;-71
2023/03/03 08:23:25;;;;;;;51.63;31.97;;;;;;;4.75;64.95;96404.47;5032281;28;20505;-72
2023/03/03 08:25:52;;;;;;;56.20;32.30;;;;;;;4.49;65.58;96410.19;5032468;28;20945;-70
2023/03/03 08:28:19;;;;;;;47.10;30.50;;;;;;;4.72;65.33;96413.19;5031580;28;20683;-69
2023/03/03 08:30:45;;;;;;;51.63;32.57;;;;;;;4.82;65.27;96419.94;5030769;28;20421;-69
2023/03/03 08:33:12;;;;;;;52.73;30.20;;;;;;;4.97;64.73;96423.94;5029134;28;20458;-70
2023/03/03 08:35:38;;;;;;;53.60;31.20;;;;;;;4.74;65.25;96419.22;5032203;28;20752;-70
2023/03/03 08:38:05;;;;;;;50.50;29.57;;;;;;;4.92;64.94;96420.59;5034419;28;20410;-71
2023/03/03 08:40:31;;;;;;;47.43;30.07;;;;;;;4.80;65.08;96413.91;5030621;28;20407;-70
2023/03/03 08:42:57;;;;;;;51.97;29.70;;;;;;;4.84;64.78;96410.34;5030593;28;20561;-71
2023/03/03 08:45:23;;;;;;;59.53;32.60;;;;;;;5.07;64.43;96406.38;5030513;28;20568;-70
2023/03/03 08:47:48;;;;;;;53.07;32.40;;;;;;;4.95;65.08;96417.06;5031684;28;20186;-70
2023/03/03 08:50:14;;;;;;;56.87;31.40;;;;;;;5.03;64.76;96417.72;5031277;28;20410;-71
2023/03/03 08:52:40;;;;;;;49.03;30.90;;;;;;;5.12;63.76;96419.28;5029181;28;20733;-71
2023/03/03 08:55:06;;;;;;;54.20;31.53;;;;;;;4.78;64.64;96420.03;5030942;28;20180;-71
2023/03/03 08:57:31;;;;;;;49.80;31.27;;;;;;;4.83;64.94;96419.03;5031578;28;20171;-72
2023/03/03 08:59:57;;;;;;;48.10;29.03;;;;;;;4.77;64.98;96420.88;5031437;28;21125;-71
2023/03/03 09:02:22;;;;;;;50.97;30.60;;;;;;;4.89;64.41;96415.47;5030509;28;20333;-70
2023/03/03 09:04:48;;;;;;;59.23;32.10;;;;;;;5.00;64.61;96417.81;5031301;28;20171;-71
2023/03/03 09:07:13;;;;;;;75.57;33.20;;;;;;;5.28;63.56;96424.09;5031225;28;20176;-71
2023/03/03 09:09:39;;;;;;;54.73;30.20;;;;;;;5.42;62.73;96422.94;5031769;28;20202;-70
2023/03/03 09:12:29;;;;;;;57.10;31.70;;;;;;;5.47;62.67;96419.34;5029301;28;20346;-71
2023/03/03 09:14:58;;;;;;;48.63;30.30;;;;;;;5.49;62.22;96414.94;5027675;28;20235;-70
2023/03/03 09:17:25;;;;;;;85.30;32.97;;;;;;;5.54;62.39;96414.84;5030671;28;20419;-71
2023/03/03 09:19:52;;;;;;;69.73;33.80;;;;;;;5.77;61.83;96431.69;5028396;28;20523;-71
2023/03/03 09:22:23;;;;;;;57.57;30.30;;;;;;;5.81;61.58;96428.06;5029677;28;20454;-71
2023/03/03 09:24:52;;;;;;;57.03;33.03;;;;;;;5.78;61.43;96434.22;5029540;28;20415;-71
2023/03/03 09:27:33;;;;;;;54.67;30.93;;;;;;;5.92;61.40;96439.94;5029127;28;20405;-71
2023/03/03 09:30:25;;;;;;;64.20;34.03;;;;;;;6.01;61.05;96436.28;5031284;28;20991;-71
2023/03/03 09:32:52;;;;;;;59.90;32.37;;;;;;;5.93;60.65;96439.06;5027671;28;20470;-72
2023/03/03 09:35:35;;;;;;;53.50;32.20;;;;;;;5.93;60.74;96440.81;5030139;28;20414;-70
2023/03/03 09:38:05;;;;;;;59.20;31.87;;;;;;;5.87;61.17;96443.56;5030169;28;20417;-70
2023/03/03 09:40:39;;;;;;;81.47;34.70;;;;;;;5.94;61.34;96450.38;5029995;28;20962;-72
2023/03/03 09:43:14;;;;;;;73.00;31.83;;;;;;;6.05;61.31;96445.75;5030091;28;20433;-71
2023/03/03 09:45:51;;;;;;;58.60;31.57;;;;;;;6.14;60.54;96455.06;5030271;28;20417;-73
2023/03/03 09:49:01;;;;;;;56.90;32.37;;;;;;;5.95;61.28;96454.66;5030298;28;20410;-71
2023/03/03 09:51:59;;;;;;;49.03;30.47;;;;;;;6.03;60.96;96450.13;5027536;28;20434;-72
2023/03/03 09:54:31;;;;;;;43.33;28.83;;;;;;;5.99;60.96;96445.88;5020216;28;20466;-72
2023/03/03 09:57:16;;;;;;;63.67;30.23;;;;;;;6.31;60.05;96447.69;5028879;28;20473;-70
2023/03/03 10:00:00;;;;;;;50.37;32.80;;;;;;;6.21;60.37;96447.94;5040962;28;20509;-71
2023/03/03 10:02:37;;;;;;;53.43;33.17;;;;;;;6.27;59.94;96451.25;5031237;28;20466;-70
2023/03/03 10:05:12;;;;;;;54.13;34.40;;;;;;;6.32;59.57;96453.75;5029213;28;20406;-72
2023/03/03 10:07:55;;;;;;;59.20;32.00;;;;;;;6.39;59.44;96454.44;5034907;28;20429;-71
2023/03/03 10:10:49;;;;;;;58.80;34.50;;;;;;;6.48;59.11;96452.44;5031178;28;20514;-71
2023/03/03 10:13:43;;;;;;;58.17;33.23;;;;;;;6.55;59.14;96445.31;5029310;28;20428;-69
2023/03/03 10:16:27;;;;;;;56.77;37.97;;;;;;;6.60;58.95;96453.84;5028719;28;20459;-71
2023/03/03 10:19:02;;;;;;;49.20;32.80;;;;;;;6.64;58.63;96452.88;5028657;28;20737;-72
2023/03/03 10:21:50;;;;;;;55.60;33.13;;;;;;;6.65;58.49;96451.13;5029311;28;20461;-72
2023/03/03 10:24:30;;;;;;;77.30;33.27;;;;;;;6.75;58.41;96442.13;5009617;28;20415;-70
2023/03/03 10:27:14;;;;;;;66.47;33.30;;;;;;;6.77;57.99;96456.84;5007808;28;20511;-72
2023/03/03 10:30:16;;;;;;;103.30;36.53;;;;;;;6.90;57.90;96454.75;5010536;28;20494;-71
2023/03/03 10:33:09;;;;;;;48.70;33.77;;;;;;;6.85;57.13;96459.25;5009991;28;20465;-71
2023/03/03 10:35:57;;;;;;;48.57;30.77;;;;;;;6.86;57.69;96460.09;5010146;28;20407;-72
2023/03/03 10:38:54;;;;;;;50.13;31.80;;;;;;;6.87;57.78;96459.19;5009199;28;20415;-70
2023/03/03 10:41:36;;;;;;;47.07;32.17;;;;;;;6.90;57.25;96467.81;5013113;28;21078;-71
2023/03/03 10:44:20;;;;;;;53.93;31.00;;;;;;;6.94;56.77;96472.00;5030515;28;20803;-71
2023/03/03 10:47:16;;;;;;;50.93;30.87;;;;;;;6.99;56.08;96472.75;5029803;28;21055;-71
2023/03/03 10:49:57;;;;;;;46.00;30.53;;;;;;;6.78;56.31;96466.41;5030289;28;20414;-71
2023/03/03 10:52:38;;;;;;;43.43;30.10;;;;;;;6.82;55.99;96474.97;5029712;28;20493;-71
2023/03/03 10:55:23;;;;;;;42.20;28.20;;;;;;;6.64;56.63;96465.94;5029201;28;20849;-70
2023/03/03 10:58:07;;;;;;;54.23;31.03;;;;;;;6.97;55.32;96471.09;5027681;28;20488;-70
2023/03/03 11:00:58;;;;;;;47.60;29.90;;;;;;;7.13;54.85;96463.66;5028005;28;20406;-71
2023/03/03 11:03:40;;;;;;;42.67;30.10;;;;;;;7.14;54.71;96468.00;5028178;28;20430;-71
2023/03/03 11:06:25;;;;;;;42.63;29.03;;;;;;;7.11;53.90;96462.84;5026008;28;20925;-72
2023/03/03 11:09:03;;;;;;;40.77;28.70;;;;;;;6.91;54.50;96468.66;5027887;28;20413;-70
2023/03/03 11:11:52;;;;;;;48.03;29.87;;;;;;;6.93;54.33;96459.88;5027861;28;21267;-70
2023/03/03 11:14:46;;;;;;;36.40;25.70;;;;;;;6.90;54.14;96462.59;5027930;28;20489;-72
2023/03/03 11:17:43;;;;;;;48.80;29.50;;;;;;;6.51;55.67;96457.56;5027075;28;20422;-71
2023/03/03 11:20:36;;;;;;;44.90;29.07;;;;;;;6.62;55.58;96452.06;5027597;28;20537;-72
2023/03/03 11:23:29;;;;;;;43.73;30.57;;;;;;;6.85;55.45;96450.56;5026777;28;20453;-71
2023/03/03 11:26:21;;;;;;;59.00;31.70;;;;;;;7.07;55.13;96448.22;5026646;28;20410;-71
2023/03/03 11:28:58;;;;;;;40.33;27.03;;;;;;;7.22;54.31;96458.19;5021898;28;21120;-73
2023/03/03 11:31:45;;;;;;;45.97;27.87;;;;;;;6.96;54.95;96457.19;5026254;28;21035;-73
2023/03/03 11:34:25;;;;;;;43.80;28.53;;;;;;;6.70;56.10;96451.84;5024177;28;20442;-71
2023/03/03 11:36:56;;;;;;;50.80;30.83;;;;;;;7.00;55.35;96458.81;5027255;28;20788;-71
2023/03/03 11:39:26;;;;;;;44.83;29.00;;;;;;;7.18;54.98;96449.59;5027242;28;20435;-72
2023/03/03 11:42:24;;;;;;;48.87;28.80;;;;;;;7.15;55.28;96457.50;5027273;28;20465;-70
2023/03/03 11:44:59;;;;;;;48.80;30.27;;;;;;;7.10;55.07;96454.19;5027871;28;20414;-70